Time;durP1;ratioP1;P1;durP2;ratioP2;P2;SDS_P1;SDS_P2;PMS_P1;PMS_P2;Temp;Humidity;BMP_temperature;BMP_pressure;BME280_temperature;BME280_humidity;BME280_pressure;Samples;Min_cycle;Max_cycle;Signal;HPM_P1;HPM_P2
2023/03/11 00:02:06;;;;;;;;;;;1.50;99.90;;;;;;5017490;28;1105;-67
2023/03/11 00:04:31;;;;;;;;;;;1.30;99.90;;;;;;5015500;28;1101;-67
2023/03/11 00:06:57;;;;;;;;;;;1.80;99.90;;;;;;5004178;28;1094;-67
2023/03/11 00:09:23;;;;;;;;;;;1.40;99.90;;;;;;5019094;28;1922;-67
2023/03/11 00:11:49;;;;;;;;;;;1.40;99.90;;;;;;5020407;28;1256;-67
2023/03/11 00:14:14;;;;;;;;;;;1.30;99.90;;;;;;5022314;28;1243;-67
2023/03/11 00:16:40;;;;;;;;;;;1.30;99.90;;;;;;5021451;28;1268;-67
2023/03/11 00:19:06;;;;;;;;;;;1.30;99.90;;;;;;5021281;28;1248;-67
2023/03/11 00:21:32;;;;;;;;;;;1.30;99.90;;;;;;5023832;28;1363;-67
2023/03/11 00:24:00;;;;;;;;;;;1.40;99.90;;;;;;5020880;28;1233;-67
2023/03/11 00:26:26;;;;;;;;;;;1.70;99.90;;;;;;5015551;28;1239;-67
2023/03/11 00:28:51;;;;;;;;;;;1.50;99.90;;;;;;5014167;28;2041;-67
2023/03/11 00:31:17;;;;;;;;;;;1.50;99.90;;;;;;5011903;28;1064;-67
2023/03/11 00:33:43;;;;;;;;;;;1.50;99.90;;;;;;5012178;28;1090;-67
2023/03/11 00:36:19;;;;;;;;;;;1.70;99.90;;;;;;5011429;28;1152;-67
2023/03/11 00:38:45;;;;;;;;;;;1.50;99.90;;;;;;5013660;28;1277;-67
2023/03/11 00:41:12;;;;;;;;;;;1.50;99.90;;;;;;5010986;28;1339;-67
2023/03/11 00:43:37;;;;;;;;;;;1.50;99.90;;;;;;5011750;28;1145;-67
2023/03/11 00:46:04;;;;;;;;;;;1.60;99.90;;;;;;5005366;28;1201;-67
2023/03/11 00:48:30;;;;;;;;;;;1.60;99.90;;;;;;5011589;28;1966;-67
2023/03/11 00:50:56;;;;;;;;;;;1.70;99.90;;;;;;5006582;28;1173;-67
2023/03/11 00:53:22;;;;;;;;;;;1.50;99.90;;;;;;5011961;28;1196;-67
2023/03/11 00:55:48;;;;;;;;;;;1.60;99.90;;;;;;5002630;28;1138;-67
2023/03/11 00:58:14;;;;;;;;;;;1.50;99.90;;;;;;5008523;28;1528;-66
2023/03/11 01:00:47;;;;;;;;;;;1.60;99.90;;;;;;5004722;28;1406;-66
2023/03/11 01:03:12;;;;;;;;;;;1.50;99.90;;;;;;5011872;28;1382;-66
2023/03/11 01:05:38;;;;;;;;;;;1.40;99.90;;;;;;4995957;28;1176;-67
2023/03/11 01:08:04;;;;;;;;;;;1.40;99.90;;;;;;5023086;28;1919;-67
2023/03/11 01:10:31;;;;;;;;;;;1.40;99.90;;;;;;5033579;28;1316;-67
2023/03/11 01:12:56;;;;;;;;;;;1.40;99.90;;;;;;5016954;28;1105;-67
2023/03/11 01:15:24;;;;;;;;;;;1.40;99.90;;;;;;5019718;28;1634;-66
2023/03/11 01:17:50;;;;;;;;;;;1.50;99.90;;;;;;5010258;28;1160;-66
2023/03/11 01:20:16;;;;;;;;;;;2.00;99.90;;;;;;5006677;28;1197;-66
2023/03/11 01:22:43;;;;;;;;;;;1.50;99.90;;;;;;5014011;28;1175;-66
2023/03/11 01:25:11;;;;;;;;;;;1.50;99.90;;;;;;4992575;28;1149;-67
2023/03/11 01:27:37;;;;;;;;;;;1.40;99.90;;;;;;5003659;28;1170;-66
2023/03/11 01:30:02;;;;;;;;;;;1.40;99.90;;;;;;5014157;28;2017;-66
2023/03/11 01:32:29;;;;;;;;;;;1.50;99.90;;;;;;5017617;28;1578;-67
2023/03/11 01:34:55;;;;;;;;;;;1.50;99.90;;;;;;5016568;28;1148;-66
2023/03/11 01:37:20;;;;;;;;;;;1.60;99.90;;;;;;5002858;28;1341;-66
2023/03/11 01:39:47;;;;;;;;;;;1.60;99.90;;;;;;5007778;28;1149;-67
2023/03/11 01:42:12;;;;;;;;;;;1.60;99.90;;;;;;5012302;28;1162;-66
2023/03/11 01:44:39;;;;;;;;;;;1.60;99.90;;;;;;5012298;28;1180;-66
2023/03/11 01:47:05;;;;;;;;;;;1.60;99.90;;;;;;5019927;28;1109;-66
2023/03/11 01:49:33;;;;;;;;;;;1.60;99.90;;;;;;4981814;28;1911;-66
2023/03/11 01:52:02;;;;;;;;;;;1.50;99.90;;;;;;5018661;28;1129;-66
2023/03/11 01:54:30;;;;;;;;;;;1.50;99.90;;;;;;5010386;28;1158;-66
2023/03/11 01:56:56;;;;;;;;;;;1.40;99.90;;;;;;5028122;28;1127;-66
2023/03/11 01:59:25;;;;;;;;;;;1.30;99.90;;;;;;5015019;28;1176;-66
2023/03/11 02:01:56;;;;;;;;;;;1.40;99.90;;;;;;5000268;28;1114;-67
2023/03/11 02:04:22;;;;;;;;;;;1.10;99.90;;;;;;5009263;28;1094;-66
2023/03/11 02:06:48;;;;;;;;;;;1.40;99.90;;;;;;5028244;28;1362;-66
2023/03/11 02:09:14;;;;;;;;;;;1.10;99.90;;;;;;5017953;28;1946;-66
2023/03/11 02:11:39;;;;;;;;;;;1.10;99.90;;;;;;5024081;28;1152;-66
2023/03/11 02:14:07;;;;;;;;;;;1.10;99.90;;;;;;5018527;28;1364;-66
2023/03/11 02:16:33;;;;;;;;;;;1.20;99.90;;;;;;5022475;28;1363;-66
2023/03/11 02:19:03;;;;;;;;;;;1.10;99.90;;;;;;5011129;28;1274;-66
2023/03/11 02:21:31;;;;;;;;;;;1.20;99.90;;;;;;5011673;28;1090;-66
2023/03/11 02:24:10;;;;;;;;;;;1.10;99.90;;;;;;5023658;28;1392;-66
2023/03/11 02:26:49;;;;;;;;;;;1.10;99.90;;;;;;5011383;28;1105;-66
2023/03/11 02:29:17;;;;;;;;;;;1.10;99.90;;;;;;5028512;28;1917;-66
2023/03/11 02:31:43;;;;;;;;;;;1.40;99.90;;;;;;5011590;28;1226;-66
2023/03/11 02:34:15;;;;;;;;;;;1.00;99.90;;;;;;5015561;28;1331;-66
2023/03/11 02:36:41;;;;;;;;;;;1.20;99.90;;;;;;5026395;28;1472;-66
2023/03/11 02:39:10;;;;;;;;;;;1.30;99.90;;;;;;5022730;28;1645;-67
2023/03/11 02:41:38;;;;;;;;;;;1.20;99.90;;;;;;4998643;28;1373;-66
2023/03/11 02:44:07;;;;;;;;;;;0.80;99.90;;;;;;5010585;28;1410;-66
2023/03/11 02:46:34;;;;;;;;;;;1.10;99.90;;;;;;4992779;28;995;-66
2023/03/11 02:49:00;;;;;;;;;;;0.90;99.90;;;;;;4974846;28;1918;-66
2023/03/11 02:51:26;;;;;;;;;;;0.70;99.90;;;;;;5001733;28;1197;-66
2023/03/11 02:53:54;;;;;;;;;;;1.00;99.90;;;;;;5011855;28;1139;-66
2023/03/11 02:56:20;;;;;;;;;;;0.60;99.90;;;;;;5010819;28;1181;-66
2023/03/11 02:58:47;;;;;;;;;;;0.60;99.90;;;;;;5026240;28;1169;-66
2023/03/11 03:01:13;;;;;;;;;;;1.30;99.90;;;;;;5028550;28;1114;-66
2023/03/11 03:03:41;;;;;;;;;;;0.60;99.90;;;;;;5027443;28;1176;-66
2023/03/11 03:06:07;;;;;;;;;;;1.40;99.90;;;;;;5029774;28;1381;-66
2023/03/11 03:08:33;;;;;;;;;;;0.50;99.90;;;;;;5017627;28;1982;-66
2023/03/11 03:10:58;;;;;;;;;;;0.60;99.90;;;;;;5012329;28;1288;-66
2023/03/11 03:13:25;;;;;;;;;;;0.40;99.90;;;;;;5010885;28;1504;-66
2023/03/11 03:15:51;;;;;;;;;;;0.40;99.90;;;;;;5027995;28;1120;-66
2023/03/11 03:18:16;;;;;;;;;;;0.60;99.90;;;;;;5025226;28;1344;-66
2023/03/11 03:20:42;;;;;;;;;;;0.50;99.90;;;;;;5013284;28;1160;-66
2023/03/11 03:23:08;;;;;;;;;;;0.40;99.90;;;;;;5032220;28;986;-66
2023/03/11 03:25:34;;;;;;;;;;;0.50;99.90;;;;;;5012158;28;1166;-66
2023/03/11 03:28:03;;;;;;;;;;;0.30;99.90;;;;;;5018307;28;2010;-66
2023/03/11 03:30:32;;;;;;;;;;;0.20;99.90;;;;;;5027014;28;1007;-67
2023/03/11 03:32:58;;;;;;;;;;;0.30;99.90;;;;;;5028479;28;1192;-67
2023/03/11 03:35:24;;;;;;;;;;;0.20;99.90;;;;;;5021789;28;1102;-67
2023/03/11 03:37:57;;;;;;;;;;;0.20;99.90;;;;;;5023967;28;1313;-66
2023/03/11 03:40:23;;;;;;;;;;;0.20;99.90;;;;;;5011867;28;1511;-67
2023/03/11 03:42:51;;;;;;;;;;;0.20;99.90;;;;;;5013895;28;1173;-67
2023/03/11 03:45:16;;;;;;;;;;;0.30;99.90;;;;;;5014074;28;1122;-66
2023/03/11 03:47:42;;;;;;;;;;;0.30;99.90;;;;;;5015198;28;1122;-66
2023/03/11 03:50:09;;;;;;;;;;;0.30;99.90;;;;;;5032365;28;1975;-66
2023/03/11 03:52:36;;;;;;;;;;;0.20;99.90;;;;;;5029323;28;1192;-67
2023/03/11 03:55:02;;;;;;;;;;;0.20;99.90;;;;;;4997715;28;1113;-66
2023/03/11 03:57:28;;;;;;;;;;;0.30;99.90;;;;;;5005719;28;1193;-66
2023/03/11 03:59:55;;;;;;;;;;;0.90;99.90;;;;;;5022974;28;1017;-66
2023/03/11 04:02:20;;;;;;;;;;;0.40;99.90;;;;;;5022687;28;1262;-66
2023/03/11 04:04:47;;;;;;;;;;;0.40;99.90;;;;;;5021200;28;1373;-66
2023/03/11 04:07:12;;;;;;;;;;;0.40;99.90;;;;;;5024246;28;1166;-66
2023/03/11 04:09:39;;;;;;;;;;;0.30;99.90;;;;;;5022427;28;1988;-66
2023/03/11 04:12:05;;;;;;;;;;;0.20;99.90;;;;;;5018607;28;1131;-66
2023/03/11 04:14:33;;;;;;;;;;;0.20;99.90;;;;;;5012664;28;1241;-67
2023/03/11 04:17:00;;;;;;;;;;;0.30;99.90;;;;;;5030905;28;1135;-67
2023/03/11 04:19:26;;;;;;;;;;;0.10;99.90;;;;;;5021717;28;1207;-66
2023/03/11 04:21:52;;;;;;;;;;;0.30;99.90;;;;;;5030710;28;1076;-66
2023/03/11 04:24:19;;;;;;;;;;;0.20;99.90;;;;;;5014307;28;1133;-66
2023/03/11 04:26:46;;;;;;;;;;;0.70;99.90;;;;;;5013332;28;1102;-66
2023/03/11 04:29:15;;;;;;;;;;;0.20;99.90;;;;;;5012900;28;1977;-66
2023/03/11 04:31:46;;;;;;;;;;;0.30;99.90;;;;;;5009962;28;1524;-67
2023/03/11 04:34:12;;;;;;;;;;;0.10;99.90;;;;;;5031259;28;1089;-66
2023/03/11 04:36:38;;;;;;;;;;;0.60;99.90;;;;;;5013138;28;1090;-66
2023/03/11 04:39:05;;;;;;;;;;;0.00;99.90;;;;;;4993807;28;1576;-66
2023/03/11 04:41:36;;;;;;;;;;;0.10;99.90;;;;;;5013036;28;1277;-66
2023/03/11 04:44:02;;;;;;;;;;;-0.10;99.90;;;;;;5028385;28;1514;-66
2023/03/11 04:46:28;;;;;;;;;;;-0.20;99.90;;;;;;5016230;28;1193;-66
2023/03/11 04:48:54;;;;;;;;;;;-0.20;99.90;;;;;;5001343;28;1903;-66
2023/03/11 04:51:20;;;;;;;;;;;-0.10;99.90;;;;;;5015859;28;1212;-66
2023/03/11 04:53:45;;;;;;;;;;;-0.40;99.90;;;;;;5028162;28;1033;-66
2023/03/11 04:56:11;;;;;;;;;;;-0.40;99.90;;;;;;5006484;28;1354;-66
2023/03/11 04:58:38;;;;;;;;;;;-0.40;99.90;;;;;;5013621;28;1215;-66
2023/03/11 05:01:04;;;;;;;;;;;-0.40;99.90;;;;;;5013728;28;1535;-66
2023/03/11 05:03:30;;;;;;;;;;;-0.40;99.90;;;;;;5012938;28;1144;-66
2023/03/11 05:05:56;;;;;;;;;;;-0.50;99.90;;;;;;5031047;28;1125;-66
2023/03/11 05:08:22;;;;;;;;;;;-0.10;99.90;;;;;;5017032;28;1906;-66
2023/03/11 05:10:49;;;;;;;;;;;-0.50;99.90;;;;;;4998242;28;1297;-66
2023/03/11 05:13:15;;;;;;;;;;;-0.10;99.90;;;;;;4984267;28;1436;-66
2023/03/11 05:15:41;;;;;;;;;;;-0.50;99.90;;;;;;5006223;28;1102;-66
2023/03/11 05:18:07;;;;;;;;;;;0.40;99.90;;;;;;5001586;28;1149;-66
2023/03/11 05:20:35;;;;;;;;;;;-0.80;99.90;;;;;;5018376;28;1105;-66
2023/03/11 05:23:01;;;;;;;;;;;-0.70;99.90;;;;;;5013986;28;1099;-66
2023/03/11 05:25:29;;;;;;;;;;;-0.70;99.90;;;;;;5026366;28;1181;-66
2023/03/11 05:27:55;;;;;;;;;;;-0.80;99.90;;;;;;5001394;28;1961;-66
2023/03/11 05:30:21;;;;;;;;;;;-0.90;99.90;;;;;;5000909;28;1151;-66
2023/03/11 05:32:48;;;;;;;;;;;-0.80;99.90;;;;;;5012053;28;1510;-66
2023/03/11 05:35:13;;;;;;;;;;;-0.90;99.90;;;;;;5011636;28;1316;-66
2023/03/11 05:37:39;;;;;;;;;;;-0.60;99.90;;;;;;5007376;28;1380;-66
2023/03/11 05:40:06;;;;;;;;;;;-1.00;99.90;;;;;;5011452;28;1329;-66
2023/03/11 05:42:34;;;;;;;;;;;-0.90;99.90;;;;;;5010985;28;1400;-66
2023/03/11 05:45:01;;;;;;;;;;;-0.90;99.90;;;;;;5012131;28;1161;-66
2023/03/11 05:47:27;;;;;;;;;;;-0.90;99.90;;;;;;5028362;28;1121;-66
2023/03/11 05:49:54;;;;;;;;;;;-0.90;99.90;;;;;;5025631;28;1914;-66
2023/03/11 05:52:21;;;;;;;;;;;-0.60;99.90;;;;;;5001586;28;1161;-66
2023/03/11 05:54:48;;;;;;;;;;;-1.20;99.90;;;;;;5009908;28;1180;-66
2023/03/11 05:57:15;;;;;;;;;;;-0.50;99.90;;;;;;5002418;28;1183;-66
2023/03/11 05:59:40;;;;;;;;;;;-1.00;99.90;;;;;;5022686;28;1121;-66
2023/03/11 06:02:06;;;;;;;;;;;-1.00;99.90;;;;;;5003327;28;1114;-66
2023/03/11 06:04:32;;;;;;;;;;;-1.00;99.90;;;;;;5010466;28;1097;-66
2023/03/11 06:07:00;;;;;;;;;;;-0.60;99.90;;;;;;5036914;28;1085;-66
2023/03/11 06:09:29;;;;;;;;;;;-0.80;99.90;;;;;;5005934;28;1914;-66
2023/03/11 06:11:55;;;;;;;;;;;-1.00;99.90;;;;;;5009086;28;1112;-66
2023/03/11 06:14:24;;;;;;;;;;;-0.90;99.90;;;;;;5001396;28;1065;-66
2023/03/11 06:16:50;;;;;;;;;;;-0.70;99.90;;;;;;5011927;28;1105;-67
2023/03/11 06:19:19;;;;;;;;;;;-1.20;99.90;;;;;;5028616;28;1097;-66
2023/03/11 06:21:47;;;;;;;;;;;-0.80;99.90;;;;;;5028596;28;1101;-66
2023/03/11 06:24:15;;;;;;;;;;;-1.10;99.90;;;;;;5011653;28;1195;-66
2023/03/11 06:26:42;;;;;;;;;;;-1.00;99.90;;;;;;5010990;28;1165;-66
2023/03/11 06:29:12;;;;;;;;;;;-0.70;99.90;;;;;;5027991;28;1910;-66
2023/03/11 06:31:38;;;;;;;;;;;-0.60;99.90;;;;;;5011113;28;1176;-66
2023/03/11 06:34:08;;;;;;;;;;;-0.70;99.90;;;;;;5010177;28;1156;-66
2023/03/11 06:36:34;;;;;;;;;;;-0.80;99.90;;;;;;4992370;28;1259;-67
2023/03/11 06:39:00;;;;;;;;;;;-0.40;99.90;;;;;;5019677;28;1336;-66
2023/03/11 06:41:26;;;;;;;;;;;-0.60;99.90;;;;;;4998916;28;1454;-66
2023/03/11 06:43:53;;;;;;;;;;;-0.90;99.90;;;;;;5008250;28;1035;-66
2023/03/11 06:46:20;;;;;;;;;;;-0.30;99.90;;;;;;4996107;28;1110;-66
2023/03/11 06:48:50;;;;;;;;;;;-0.50;99.90;;;;;;5003974;28;1990;-66
2023/03/11 06:51:16;;;;;;;;;;;0.00;99.90;;;;;;5001924;28;1141;-66
2023/03/11 06:53:42;;;;;;;;;;;-0.60;99.90;;;;;;5009025;28;1132;-66
2023/03/11 06:56:10;;;;;;;;;;;0.00;99.90;;;;;;5007339;28;1250;-66
2023/03/11 06:58:42;;;;;;;;;;;-0.70;99.90;;;;;;5006345;28;1451;-67
2023/03/11 07:01:12;;;;;;;;;;;-0.40;99.90;;;;;;5008588;28;1135;-66
2023/03/11 07:03:38;;;;;;;;;;;-0.10;99.90;;;;;;5009352;28;1067;-66
2023/03/11 07:06:04;;;;;;;;;;;-0.10;99.90;;;;;;5022441;28;1082;-67
2023/03/11 07:08:30;;;;;;;;;;;-0.20;99.90;;;;;;5005345;28;1981;-67
2023/03/11 07:11:04;;;;;;;;;;;-0.30;99.90;;;;;;4993903;28;1243;-66
2023/03/11 07:13:32;;;;;;;;;;;-0.10;99.90;;;;;;4999176;28;1106;-66
2023/03/11 07:16:03;;;;;;;;;;;-0.10;99.90;;;;;;4995668;28;1066;-67
2023/03/11 07:18:29;;;;;;;;;;;-0.10;99.90;;;;;;5007877;28;1565;-66
2023/03/11 07:20:55;;;;;;;;;;;0.00;99.90;;;;;;5024669;28;1145;-66
2023/03/11 07:23:21;;;;;;;;;;;0.00;99.90;;;;;;5008820;28;1082;-67
2023/03/11 07:25:47;;;;;;;;;;;-0.10;99.90;;;;;;5003082;28;1152;-66
2023/03/11 07:28:13;;;;;;;;;;;0.20;99.90;;;;;;4989773;28;1959;-67
2023/03/11 07:30:38;;;;;;;;;;;0.30;99.90;;;;;;4993861;28;1106;-66
2023/03/11 07:33:04;;;;;;;;;;;0.70;99.90;;;;;;4999051;28;1256;-66
2023/03/11 07:35:30;;;;;;;;;;;0.40;99.90;;;;;;4982530;28;1106;-66
2023/03/11 07:37:55;;;;;;;;;;;0.50;99.90;;;;;;5001058;28;1188;-67
2023/03/11 07:40:21;;;;;;;;;;;0.50;99.90;;;;;;4998627;28;1117;-67
2023/03/11 07:42:47;;;;;;;;;;;0.40;99.90;;;;;;5014471;28;1536;-67
2023/03/11 07:45:13;;;;;;;;;;;0.60;99.90;;;;;;5017120;28;1090;-66
2023/03/11 07:47:38;;;;;;;;;;;0.80;99.90;;;;;;5020696;28;1248;-66
2023/03/11 07:50:04;;;;;;;;;;;0.60;99.90;;;;;;5027704;28;1934;-66
2023/03/11 07:52:30;;;;;;;;;;;0.60;99.90;;;;;;5016690;28;1237;-66
2023/03/11 07:54:56;;;;;;;;;;;0.70;99.90;;;;;;5017784;28;1372;-67
2023/03/11 07:57:22;;;;;;;;;;;0.70;99.90;;;;;;4996533;28;1213;-66
2023/03/11 07:59:47;;;;;;;;;;;0.60;99.90;;;;;;5000922;28;3730;-67
2023/03/11 08:02:13;;;;;;;;;;;0.80;99.90;;;;;;5018124;28;1188;-66
2023/03/11 08:04:39;;;;;;;;;;;0.80;99.90;;;;;;5013131;28;3605;-66
2023/03/11 08:07:05;;;;;;;;;;;1.10;99.90;;;;;;5035983;28;1123;-66
2023/03/11 08:09:30;;;;;;;;;;;1.20;99.90;;;;;;5020901;28;2007;-66
2023/03/11 08:11:56;;;;;;;;;;;1.40;99.90;;;;;;5019173;28;1236;-67
2023/03/11 08:14:22;;;;;;;;;;;1.20;99.90;;;;;;5020925;28;1287;-67
2023/03/11 08:16:47;;;;;;;;;;;1.30;99.90;;;;;;5024139;28;3209;-67
2023/03/11 08:19:13;;;;;;;;;;;1.40;99.90;;;;;;5019039;28;1137;-67
2023/03/11 08:21:39;;;;;;;;;;;2.00;99.90;;;;;;5021135;28;1160;-67
2023/03/11 08:24:05;;;;;;;;;;;1.40;99.90;;;;;;5018160;28;1240;-67
2023/03/11 08:26:31;;;;;;;;;;;1.30;99.90;;;;;;5016026;28;1463;-67
2023/03/11 08:28:57;;;;;;;;;;;1.30;99.90;;;;;;5031738;28;1981;-67
2023/03/11 08:31:24;;;;;;;;;;;1.60;99.90;;;;;;5031866;28;1153;-67
2023/03/11 08:33:51;;;;;;;;;;;1.40;99.90;;;;;;5030717;28;1120;-67
2023/03/11 08:36:17;;;;;;;;;;;1.20;99.90;;;;;;5027729;28;1308;-66
2023/03/11 08:38:43;;;;;;;;;;;1.30;99.90;;;;;;5018414;28;1384;-66
2023/03/11 08:41:08;;;;;;;;;;;1.20;99.90;;;;;;5012550;28;1237;-66
2023/03/11 08:43:34;;;;;;;;;;;1.40;99.90;;;;;;5026564;28;1197;-67
2023/03/11 08:46:01;;;;;;;;;;;1.20;99.90;;;;;;5031696;28;1087;-67
2023/03/11 08:48:27;;;;;;;;;;;1.30;99.90;;;;;;5030426;28;1983;-67
2023/03/11 08:50:52;;;;;;;;;;;1.40;99.90;;;;;;5031515;28;1145;-67
2023/03/11 08:53:18;;;;;;;;;;;1.50;99.90;;;;;;5026348;28;1195;-67
2023/03/11 08:55:44;;;;;;;;;;;1.70;99.90;;;;;;5011341;28;1110;-66
2023/03/11 08:58:10;;;;;;;;;;;1.80;99.90;;;;;;5018649;28;1149;-66
2023/03/11 09:00:35;;;;;;;;;;;2.00;99.90;;;;;;5025408;28;1259;-66
2023/03/11 09:03:01;;;;;;;;;;;2.10;99.90;;;;;;5024209;28;1077;-66
2023/03/11 09:05:27;;;;;;;;;;;1.70;99.90;;;;;;5018096;28;1432;-66
2023/03/11 09:07:52;;;;;;;;;;;1.90;99.90;;;;;;5021807;28;1334;-66
2023/03/11 09:10:18;;;;;;;;;;;2.10;99.90;;;;;;5014974;28;1918;-67
2023/03/11 09:12:44;;;;;;;;;;;2.10;99.90;;;;;;5015290;28;1157;-67
2023/03/11 09:15:09;;;;;;;;;;;2.00;99.90;;;;;;5019740;28;1263;-66
2023/03/11 09:17:35;;;;;;;;;;;2.20;99.90;;;;;;5018286;28;1321;-68
2023/03/11 09:20:01;;;;;;;;;;;2.30;99.90;;;;;;5011379;28;1071;-67
2023/03/11 09:22:27;;;;;;;;;;;2.50;99.90;;;;;;4992986;28;2123;-67
2023/03/11 09:24:52;;;;;;;;;;;2.40;99.90;;;;;;5003246;28;1145;-67
2023/03/11 09:27:18;;;;;;;;;;;2.50;99.90;;;;;;5027657;28;1164;-67
2023/03/11 09:29:44;;;;;;;;;;;2.50;99.90;;;;;;5029960;28;1906;-67
2023/03/11 09:32:11;;;;;;;;;;;2.60;99.90;;;;;;5012591;28;1177;-67
2023/03/11 09:34:37;;;;;;;;;;;2.70;99.90;;;;;;5030709;28;1093;-67
2023/03/11 09:37:03;;;;;;;;;;;2.90;99.90;;;;;;5029961;28;1172;-67
2023/03/11 09:39:29;;;;;;;;;;;3.00;99.90;;;;;;5011090;28;1589;-69
2023/03/11 09:41:56;;;;;;;;;;;3.00;99.90;;;;;;5010555;28;1133;-67
2023/03/11 09:44:38;;;;;;;;;;;3.00;99.90;;;;;;5019187;28;1249;-68
2023/03/11 09:47:22;;;;;;;;;;;3.00;99.90;;;;;;5010567;28;1105;-67
2023/03/11 09:49:52;;;;;;;;;;;3.10;99.90;;;;;;5010064;28;1961;-67
2023/03/11 09:52:19;;;;;;;;;;;3.40;99.90;;;;;;4993244;28;1106;-68
2023/03/11 09:54:46;;;;;;;;;;;3.50;99.90;;;;;;5010399;28;1145;-68
2023/03/11 09:57:16;;;;;;;;;;;3.40;99.90;;;;;;5016342;28;1164;-68
2023/03/11 09:59:43;;;;;;;;;;;3.70;99.90;;;;;;5019793;28;1270;-68
2023/03/11 10:02:13;;;;;;;;;;;3.90;99.90;;;;;;5019750;28;1221;-69
2023/03/11 10:04:42;;;;;;;;;;;3.80;99.90;;;;;;5009722;28;1086;-68
2023/03/11 10:07:11;;;;;;;;;;;3.80;99.90;;;;;;5023058;28;1403;-68
2023/03/11 10:09:47;;;;;;;;;;;4.10;99.90;;;;;;5021110;28;1918;-68
2023/03/11 10:12:18;;;;;;;;;;;4.50;99.90;;;;;;5018210;28;1295;-68
2023/03/11 10:14:51;;;;;;;;;;;4.30;99.90;;;;;;5020088;28;1340;-68
2023/03/11 10:17:25;;;;;;;;;;;4.50;99.90;;;;;;5020142;28;1263;-68
2023/03/11 10:19:52;;;;;;;;;;;4.90;99.90;;;;;;5020999;28;3349;-70
2023/03/11 10:22:31;;;;;;;;;;;5.40;99.90;;;;;;5019836;28;1101;-68
2023/03/11 10:25:04;;;;;;;;;;;5.80;99.90;;;;;;5011451;28;1379;-68
2023/03/11 10:27:34;;;;;;;;;;;6.60;99.90;;;;;;5029679;28;1181;-68
2023/03/11 10:30:20;;;;;;;;;;;7.10;99.90;;;;;;5028545;28;1972;-68
2023/03/11 10:32:56;;;;;;;;;;;7.60;99.90;;;;;;5028447;28;1105;-68
2023/03/11 10:35:28;;;;;;;;;;;8.10;99.90;;;;;;5029559;28;1093;-68
2023/03/11 10:37:55;;;;;;;;;;;8.20;99.90;;;;;;5005205;28;1322;-68
2023/03/11 10:40:25;;;;;;;;;;;8.70;99.90;;;;;;5008385;28;1106;-68
2023/03/11 10:42:52;;;;;;;;;;;8.60;99.90;;;;;;5029076;28;1464;-67
2023/03/11 10:45:19;;;;;;;;;;;8.90;99.60;;;;;;5012024;28;1128;-66
2023/03/11 10:47:45;;;;;;;;;;;8.90;98.40;;;;;;5008894;28;1181;-66
2023/03/11 10:50:16;;;;;;;;;;;8.90;98.60;;;;;;5026556;28;1914;-66
2023/03/11 10:52:45;;;;;;;;;;;9.20;96.90;;;;;;5023366;28;3778;-66
2023/03/11 10:55:14;;;;;;;;;;;9.20;96.50;;;;;;5017952;28;3827;-66
2023/03/11 10:57:40;;;;;;;;;;;9.10;96.00;;;;;;5028884;28;3568;-66
2023/03/11 11:00:16;;;;;;;;;;;9.30;97.80;;;;;;5014857;28;1372;-66
2023/03/11 11:02:50;;;;;;;;;;;9.50;97.50;;;;;;5027278;28;1403;-66
2023/03/11 11:05:16;;;;;;;;;;;9.50;95.60;;;;;;5009365;28;1098;-66
2023/03/11 11:07:43;;;;;;;;;;;9.00;96.30;;;;;;5037048;28;1159;-66
2023/03/11 11:10:10;;;;;;;;;;;9.30;96.90;;;;;;5022192;28;3053;-66
2023/03/11 11:12:36;;;;;;;;;;;8.70;97.60;;;;;;5015620;28;1085;-66
2023/03/11 11:15:02;;;;;;;;;;;8.70;97.00;;;;;;5027600;28;1124;-66
2023/03/11 11:17:29;;;;;;;;;;;8.60;98.60;;;;;;5011340;28;1098;-66
2023/03/11 11:19:56;;;;;;;;;;;9.20;97.50;;;;;;5028973;28;1105;-66
2023/03/11 11:22:23;;;;;;;;;;;9.40;95.20;;;;;;5010944;28;1154;-66
2023/03/11 11:24:51;;;;;;;;;;;9.60;97.10;;;;;;5009037;28;1149;-66
2023/03/11 11:27:18;;;;;;;;;;;9.90;97.10;;;;;;5008799;28;1297;-66
2023/03/11 11:29:44;;;;;;;;;;;9.80;96.30;;;;;;5015786;28;1910;-66
2023/03/11 11:32:15;;;;;;;;;;;9.50;95.70;;;;;;5011595;28;990;-66
2023/03/11 11:34:41;;;;;;;;;;;9.60;95.90;;;;;;5002884;28;1124;-66
2023/03/11 11:37:11;;;;;;;;;;;10.00;95.50;;;;;;5010626;28;1029;-66
2023/03/11 11:39:50;;;;;;;;;;;9.80;95.30;;;;;;5011051;28;1098;-66
2023/03/11 11:42:17;;;;;;;;;;;10.10;96.00;;;;;;5030782;28;1168;-66
2023/03/11 11:44:45;;;;;;;;;;;10.10;94.60;;;;;;5032574;28;1097;-66
2023/03/11 11:47:11;;;;;;;;;;;10.50;95.60;;;;;;5032919;28;1109;-66
2023/03/11 11:49:42;;;;;;;;;;;10.20;94.40;;;;;;5031949;28;1918;-66
2023/03/11 11:52:14;;;;;;;;;;;10.50;93.70;;;;;;5027659;28;3488;-66
2023/03/11 11:54:40;;;;;;;;;;;10.30;93.30;;;;;;5031974;28;1090;-66
2023/03/11 11:57:10;;;;;;;;;;;10.50;93.70;;;;;;5031830;28;1150;-66
2023/03/11 11:59:36;;;;;;;;;;;10.40;93.60;;;;;;5031987;28;1089;-66
2023/03/11 12:02:10;;;;;;;;;;;10.80;92.60;;;;;;5025083;28;1283;-66
2023/03/11 12:04:45;;;;;;;;;;;10.70;93.00;;;;;;5019683;28;1232;-66
2023/03/11 12:07:17;;;;;;;;;;;10.50;91.10;;;;;;5023176;28;1085;-66
2023/03/11 12:09:44;;;;;;;;;;;10.90;92.90;;;;;;5021424;28;1906;-66
2023/03/11 12:12:10;;;;;;;;;;;11.00;90.50;;;;;;5021132;28;1259;-66
2023/03/11 12:14:42;;;;;;;;;;;10.80;92.30;;;;;;5008121;28;1218;-66
2023/03/11 12:17:09;;;;;;;;;;;11.00;91.80;;;;;;5028470;28;1208;-66
2023/03/11 12:19:38;;;;;;;;;;;11.10;90.00;;;;;;5011173;28;1180;-66
2023/03/11 12:22:08;;;;;;;;;;;11.00;89.40;;;;;;4993865;28;1154;-66
2023/03/11 12:24:56;;;;;;;;;;;10.80;88.40;;;;;;5011262;28;1151;-66
2023/03/11 12:27:31;;;;;;;;;;;10.40;92.40;;;;;;5011964;28;1168;-66
2023/03/11 12:30:00;;;;;;;;;;;10.50;91.30;;;;;;5011563;28;1934;-66
2023/03/11 12:32:31;;;;;;;;;;;10.50;90.40;;;;;;4993648;28;1009;-66
2023/03/11 12:35:00;;;;;;;;;;;10.20;91.10;;;;;;5011944;28;1105;-66
2023/03/11 12:37:26;;;;;;;;;;;10.20;93.10;;;;;;5014708;28;1352;-66
2023/03/11 12:39:52;;;;;;;;;;;10.00;90.20;;;;;;5030805;28;1267;-66
2023/03/11 12:42:24;;;;;;;;;;;9.90;91.70;;;;;;5027937;28;1415;-67
2023/03/11 12:44:50;;;;;;;;;;;10.00;92.90;;;;;;5023340;28;1283;-67
2023/03/11 12:47:17;;;;;;;;;;;10.10;91.90;;;;;;5021199;28;1333;-66
2023/03/11 12:49:44;;;;;;;;;;;10.10;91.60;;;;;;5016880;28;2009;-66
2023/03/11 12:52:10;;;;;;;;;;;10.00;93.00;;;;;;5010571;28;1125;-66
2023/03/11 12:54:43;;;;;;;;;;;10.20;92.00;;;;;;5010532;28;1106;-66
2023/03/11 12:57:15;;;;;;;;;;;10.60;91.20;;;;;;5011270;28;1121;-66
2023/03/11 12:59:58;;;;;;;;;;;10.70;90.50;;;;;;5013295;28;1097;-66
2023/03/11 13:02:35;;;;;;;;;;;10.50;91.50;;;;;;5031225;28;1073;-66
2023/03/11 13:05:14;;;;;;;;;;;10.40;89.50;;;;;;5031080;28;1180;-66
2023/03/11 13:07:42;;;;;;;;;;;9.90;91.00;;;;;;5041477;28;1081;-66
2023/03/11 13:10:13;;;;;;;;;;;9.60;92.20;;;;;;5020402;28;1919;-66
2023/03/11 13:12:42;;;;;;;;;;;9.50;91.90;;;;;;5020190;28;1232;-66
2023/03/11 13:15:16;;;;;;;;;;;8.90;92.30;;;;;;5019148;28;1279;-66
2023/03/11 13:17:54;;;;;;;;;;;9.00;91.30;;;;;;5011729;28;1189;-66
2023/03/11 13:20:41;;;;;;;;;;;9.00;92.80;;;;;;4993831;28;1138;-66
2023/03/11 13:23:26;;;;;;;;;;;9.70;91.50;;;;;;5019244;28;1121;-66
2023/03/11 13:25:52;;;;;;;;;;;9.90;91.90;;;;;;5012758;28;1006;-66
2023/03/11 13:28:26;;;;;;;;;;;10.50;91.10;;;;;;5000521;28;1997;-66
2023/03/11 13:31:07;;;;;;;;;;;10.40;91.10;;;;;;5010849;28;1165;-66
2023/03/11 13:33:40;;;;;;;;;;;10.30;89.40;;;;;;5010474;28;1130;-66
2023/03/11 13:36:25;;;;;;;;;;;10.10;88.90;;;;;;5024683;28;1187;-66
2023/03/11 13:39:01;;;;;;;;;;;10.10;90.10;;;;;;5030065;28;1308;-66
2023/03/11 13:41:35;;;;;;;;;;;10.20;88.60;;;;;;5030393;28;1164;-66
2023/03/11 13:44:11;;;;;;;;;;;10.20;88.00;;;;;;5030185;28;1239;-66
2023/03/11 13:46:38;;;;;;;;;;;10.00;89.00;;;;;;5030464;28;1207;-66
2023/03/11 13:49:08;;;;;;;;;;;10.00;90.80;;;;;;5029622;28;1918;-66
2023/03/11 13:51:41;;;;;;;;;;;10.10;90.40;;;;;;5029973;28;1101;-66
2023/03/11 13:54:18;;;;;;;;;;;10.10;90.10;;;;;;5029000;28;3675;-66
2023/03/11 13:56:48;;;;;;;;;;;9.80;91.00;;;;;;5023235;28;2639;-66
2023/03/11 13:59:14;;;;;;;;;;;9.70;90.90;;;;;;5015199;28;1598;-67
2023/03/11 14:01:46;;;;;;;;;;;9.70;90.00;;;;;;5024132;28;1251;-66
2023/03/11 14:04:14;;;;;;;;;;;9.60;90.80;;;;;;5013133;28;1352;-66
2023/03/11 14:06:40;;;;;;;;;;;9.90;92.10;;;;;;5021976;28;1200;-67
2023/03/11 14:09:16;;;;;;;;;;;10.30;91.50;;;;;;5027558;28;1967;-67
2023/03/11 14:11:46;;;;;;;;;;;10.40;89.10;;;;;;5009416;28;1181;-67
2023/03/11 14:14:26;;;;;;;;;;;10.50;91.60;;;;;;4992401;28;1647;-67
2023/03/11 14:16:52;;;;;;;;;;;10.40;90.00;;;;;;5015440;28;1364;-67
2023/03/11 14:19:18;;;;;;;;;;;10.50;90.00;;;;;;5029719;28;1137;-67
2023/03/11 14:21:46;;;;;;;;;;;10.10;87.30;;;;;;5029449;28;1046;-67
2023/03/11 14:24:21;;;;;;;;;;;9.90;89.70;;;;;;5029180;28;1121;-67
2023/03/11 14:26:48;;;;;;;;;;;10.20;89.80;;;;;;5010070;28;1064;-67
2023/03/11 14:29:15;;;;;;;;;;;10.40;89.60;;;;;;5009648;28;1969;-67
2023/03/11 14:31:42;;;;;;;;;;;10.60;90.40;;;;;;5017669;28;1245;-67
2023/03/11 14:34:09;;;;;;;;;;;10.60;88.30;;;;;;5020960;28;1066;-67
2023/03/11 14:36:39;;;;;;;;;;;10.30;86.40;;;;;;5027621;28;1297;-67
2023/03/11 14:39:05;;;;;;;;;;;10.10;87.80;;;;;;5028148;28;1289;-67
2023/03/11 14:41:31;;;;;;;;;;;9.80;87.50;;;;;;5029317;28;1275;-67
2023/03/11 14:43:56;;;;;;;;;;;9.70;90.50;;;;;;5029178;28;1074;-67